Time;durP1;ratioP1;P1;durP2;ratioP2;P2;SDS_P1;SDS_P2;PMS_P1;PMS_P2;Temp;Humidity;BMP_temperature;BMP_pressure;BME280_temperature;BME280_humidity;BME280_pressure;Samples;Min_cycle;Max_cycle;Signal;HPM_P1;HPM_P2
2021/08/05 00:02:53;;;;;;;0.03;0.03;;;17.40;82.10;;;20.21;69.17;101172.94;4399368;39;97567;-74
2021/08/05 00:05:58;;;;;;;0.55;0.25;;;17.40;82.10;;;20.15;68.93;101172.41;4410820;39;98647;-74
2021/08/05 00:09:06;;;;;;;0.10;0.10;;;17.30;82.20;;;20.15;68.86;101163.47;4403380;39;97777;-75
2021/08/05 00:12:12;;;;;;;0.98;0.70;;;17.30;82.20;;;20.11;69.10;101157.94;4413474;39;97607;-74
2021/08/05 00:15:19;;;;;;;0.10;0.10;;;17.30;82.20;;;20.08;68.87;101157.84;4413029;39;97049;-75
2021/08/05 00:18:24;;;;;;;0.22;0.22;;;17.20;82.20;;;20.06;68.93;101152.78;4418160;39;97552;-75
2021/08/05 00:21:28;;;;;;;0.25;0.25;;;17.20;82.20;;;20.06;69.00;101155.50;4415699;39;96817;-75
2021/08/05 00:24:32;;;;;;;0.20;0.20;;;17.20;82.20;;;20.04;68.67;101149.63;4419823;39;97829;-74
2021/08/05 00:27:46;;;;;;;0.05;0.05;;;17.10;82.20;;;20.04;68.59;101146.91;4414098;39;97543;-75
2021/08/05 00:30:51;;;;;;;0.30;0.30;;;17.10;82.30;;;20.07;68.53;101143.47;4414284;39;97412;-74
2021/08/05 00:33:55;;;;;;;0.10;0.10;;;17.10;82.20;;;20.07;68.27;101150.81;4408296;39;97507;-75
2021/08/05 00:37:01;;;;;;;0.43;0.20;;;17.10;82.20;;;20.05;68.03;101153.09;4416978;39;97483;-75
2021/08/05 00:40:10;;;;;;;0.00;0.00;;;17.10;82.20;;;20.10;67.77;101147.38;4417561;39;98222;-75
2021/08/05 00:43:16;;;;;;;0.00;0.00;;;17.10;82.30;;;20.06;68.77;101146.53;4408111;39;96860;-75
2021/08/05 00:46:20;;;;;;;0.10;0.10;;;17.10;82.30;;;20.07;68.26;101146.19;4384028;39;97996;-75
2021/08/05 00:49:25;;;;;;;0.82;0.60;;;17.10;82.30;;;20.07;68.42;101145.38;4411291;39;99677;-74
2021/08/05 00:52:30;;;;;;;0.28;0.28;;;17.00;82.20;;;20.00;68.44;101137.03;4414812;39;98989;-74
2021/08/05 00:55:34;;;;;;;0.35;0.35;;;17.00;82.20;;;19.98;67.77;101142.03;4416194;39;97070;-75
2021/08/05 00:58:40;;;;;;;0.43;0.43;;;17.00;82.20;;;19.96;67.98;101133.44;4415809;39;96659;-74
2021/08/05 01:01:54;;;;;;;0.65;0.65;;;17.00;82.20;;;19.99;68.45;101133.53;4414186;39;97657;-75
2021/08/05 01:05:00;;;;;;;0.00;0.00;;;17.00;82.20;;;20.04;68.34;101124.34;4401319;39;96950;-75
2021/08/05 01:08:12;;;;;;;0.00;0.00;;;17.00;82.20;;;20.04;67.96;101124.34;4394745;39;97623;-74
2021/08/05 01:11:29;;;;;;;0.43;0.43;;;17.00;82.20;;;20.02;67.69;101121.97;4408867;39;97602;-75
2021/08/05 01:14:41;;;;;;;0.13;0.13;;;17.00;82.10;;;20.06;67.92;101116.59;4415975;39;98251;-74
2021/08/05 01:17:52;;;;;;;0.52;0.52;;;17.00;82.10;;;20.06;67.40;101116.59;4410159;39;96646;-76
2021/08/05 01:20:57;;;;;;;0.20;0.20;;;17.00;82.10;;;20.04;68.29;101121.59;4407298;39;97633;-75
2021/08/05 01:24:09;;;;;;;0.82;0.80;;;17.00;82.00;;;20.00;68.27;101107.13;4413807;39;97530;-75
2021/08/05 01:27:17;;;;;;;0.63;0.63;;;17.00;82.00;;;20.05;68.12;101110.38;4413525;39;96848;-75
2021/08/05 01:30:23;;;;;;;0.00;0.00;;;17.00;82.10;;;20.09;67.77;101102.28;4408075;39;97485;-75
2021/08/05 01:33:28;;;;;;;0.75;0.65;;;17.00;82.10;;;20.06;67.70;101100.28;4406089;39;97574;-74
2021/08/05 01:36:33;;;;;;;1.10;0.70;;;17.00;82.10;;;20.06;68.29;101094.84;4409266;39;98172;-75
2021/08/05 01:39:40;;;;;;;0.17;0.17;;;17.00;82.10;;;20.07;67.89;101091.78;4415187;39;97981;-75
2021/08/05 01:42:47;;;;;;;0.45;0.45;;;17.00;82.00;;;20.08;68.16;101079.75;4415431;39;97056;-75
2021/08/05 01:45:51;;;;;;;0.30;0.30;;;17.00;82.00;;;20.07;67.88;101080.09;4391623;39;96715;-74
2021/08/05 01:48:56;;;;;;;0.65;0.65;;;17.00;82.00;;;20.11;67.71;101075.50;4416751;39;97748;-75
2021/08/05 01:52:04;;;;;;;3.60;0.70;;;17.00;82.00;;;20.07;67.94;101077.38;4394934;39;99084;-74
2021/08/05 01:55:11;;;;;;;0.00;0.00;;;17.00;82.00;;;20.02;68.10;101073.00;4406676;39;96780;-75
2021/08/05 01:58:17;;;;;;;0.10;0.10;;;17.00;82.00;;;20.02;68.06;101078.47;4413793;39;96704;-75
2021/08/05 02:01:22;;;;;;;0.20;0.20;;;17.00;82.00;;;20.00;68.21;101083.44;4390253;39;96954;-74
2021/08/05 02:04:45;;;;;;;3.00;0.52;;;17.00;82.10;;;20.04;67.54;101075.38;4419450;39;97600;-75
2021/08/05 02:07:56;;;;;;;0.40;0.40;;;17.00;82.10;;;20.03;67.89;101077.31;4399406;39;97612;-75
2021/08/05 02:11:00;;;;;;;0.43;0.22;;;17.00;82.00;;;20.01;67.88;101078.78;4416041;39;97719;-75
2021/08/05 02:14:11;;;;;;;0.28;0.28;;;17.00;82.10;;;20.07;67.52;101074.66;4391377;39;97175;-75
2021/08/05 02:17:18;;;;;;;0.30;0.30;;;17.00;82.10;;;20.05;67.84;101076.94;4414091;39;96598;-75
2021/08/05 02:20:24;;;;;;;1.42;0.80;;;17.00;82.10;;;20.03;68.00;101073.78;4408156;39;96937;-75
2021/08/05 02:23:31;;;;;;;0.03;0.03;;;17.00;82.10;;;20.03;67.64;101073.78;4414790;39;97896;-75
2021/08/05 02:26:37;;;;;;;0.38;0.38;;;16.90;82.10;;;19.99;68.25;101068.25;4396781;39;98060;-75
2021/08/05 02:29:44;;;;;;;0.55;0.55;;;16.90;82.10;;;20.05;67.27;101071.50;4411263;39;98796;-75
2021/08/05 02:32:50;;;;;;;0.45;0.30;;;16.90;82.10;;;20.06;67.50;101067.63;4414667;39;97335;-75
2021/08/05 02:35:55;;;;;;;0.20;0.20;;;16.90;82.10;;;20.06;67.15;101067.63;4414421;39;98683;-75
2021/08/05 02:39:00;;;;;;;1.55;0.50;;;16.90;82.10;;;20.03;67.63;101062.91;4413585;39;97711;-75
2021/08/05 02:42:08;;;;;;;0.73;0.73;;;16.90;82.10;;;19.97;67.66;101067.81;4404210;39;96730;-75
2021/08/05 02:45:16;;;;;;;0.15;0.15;;;16.90;82.10;;;19.91;68.15;101065.72;4404014;39;97582;-75
2021/08/05 02:48:20;;;;;;;0.55;0.55;;;16.90;82.00;;;19.85;68.31;101069.88;4404698;39;97663;-75
2021/08/05 02:51:27;;;;;;;0.00;0.00;;;16.90;82.10;;;19.84;68.09;101063.63;4396535;39;97893;-75
2021/08/05 02:54:31;;;;;;;0.10;0.10;;;16.80;82.10;;;19.83;67.44;101053.91;4405134;39;97692;-75
2021/08/05 02:57:37;;;;;;;0.10;0.10;;;16.80;82.10;;;19.82;67.71;101052.31;4406106;39;96748;-75
2021/08/05 03:00:47;;;;;;;3.40;0.75;;;16.80;82.20;;;19.79;67.75;101058.47;4407958;39;97657;-75
2021/08/05 03:03:53;;;;;;;0.57;0.57;;;16.70;82.00;;;19.71;67.90;101062.19;4404053;39;97654;-75
2021/08/05 03:06:58;;;;;;;0.10;0.10;;;16.70;82.10;;;19.70;68.38;101054.38;4416977;39;97112;-75
2021/08/05 03:10:04;;;;;;;0.50;0.50;;;16.70;82.20;;;19.74;67.44;101049.81;4409428;39;98101;-75
2021/08/05 03:13:08;;;;;;;0.22;0.20;;;16.70;82.30;;;19.74;67.62;101039.72;4415604;39;96598;-75
2021/08/05 03:16:16;;;;;;;0.55;0.55;;;16.70;82.30;;;19.73;68.03;101045.50;4418535;39;97794;-75
2021/08/05 03:19:21;;;;;;;0.20;0.20;;;16.70;82.30;;;19.73;68.34;101042.78;4390900;39;97078;-75
2021/08/05 03:22:26;;;;;;;3.72;1.00;;;16.60;82.20;;;19.73;67.99;101043.59;4406623;39;97884;-75
2021/08/05 03:25:30;;;;;;;0.45;0.45;;;16.60;82.20;;;19.74;67.94;101038.91;4414920;39;97399;-75
2021/08/05 03:28:34;;;;;;;5.68;0.80;;;16.60;82.20;;;19.77;67.79;101044.44;4412547;39;96646;-75
2021/08/05 03:31:40;;;;;;;0.10;0.10;;;16.60;82.20;;;19.76;67.27;101045.59;4415745;39;100474;-75
2021/08/05 03:34:44;;;;;;;0.10;0.10;;;16.60;82.20;;;19.75;67.69;101040.50;4415961;39;98614;-75
2021/08/05 03:37:48;;;;;;;0.73;0.73;;;16.60;82.20;;;19.69;67.72;101036.47;4415734;39;97092;-75
2021/08/05 03:40:52;;;;;;;0.10;0.10;;;16.60;82.20;;;19.63;67.40;101041.41;4416000;39;97541;-75
2021/08/05 03:43:56;;;;;;;0.73;0.73;;;16.60;82.30;;;19.60;67.53;101033.97;4416046;39;97274;-75
2021/08/05 03:47:03;;;;;;;0.30;0.30;;;16.50;82.30;;;19.59;67.95;101035.09;4398872;39;97260;-75
2021/08/05 03:50:09;;;;;;;0.50;0.50;;;16.50;82.20;;;19.55;67.73;101028.03;4405929;39;96887;-74
2021/08/05 03:53:18;;;;;;;0.47;0.47;;;16.50;82.30;;;19.59;68.22;101031.59;4406328;39;97855;-74
2021/08/05 03:56:22;;;;;;;0.20;0.20;;;16.50;82.40;;;19.63;67.85;101024.31;4400025;39;97466;-74
2021/08/05 03:59:26;;;;;;;0.80;0.80;;;16.50;82.40;;;19.60;67.64;101028.50;4415684;39;97667;-75
2021/08/05 04:02:31;;;;;;;;;;;16.50;82.40;;;19.59;68.11;101020.72;4416251;39;97623;-74
2021/08/05 04:05:35;;;;;;;0.00;0.00;;;16.50;82.40;;;19.51;67.31;101029.84;4403403;39;96777;-75
2021/08/05 04:08:39;;;;;;;0.20;0.20;;;16.50;82.30;;;19.46;67.76;101028.22;4395664;39;97637;-75
2021/08/05 04:11:43;;;;;;;0.43;0.43;;;16.40;82.20;;;19.48;68.15;101023.22;4410020;39;98040;-75
2021/08/05 04:14:47;;;;;;;;;;;16.40;82.40;;;19.55;67.74;101025.31;4403207;39;97426;-75
2021/08/05 04:17:52;;;;;;;0.00;0.00;;;16.40;82.40;;;19.60;67.55;101022.31;4412014;39;98116;-75
2021/08/05 04:20:57;;;;;;;0.20;0.20;;;16.40;82.30;;;19.63;67.44;101029.75;4405628;39;96840;-74
2021/08/05 04:24:01;;;;;;;;;;;16.50;82.40;;;19.68;67.24;101027.56;4419395;39;96753;-75
2021/08/05 04:27:07;;;;;;;0.40;0.40;;;16.40;82.30;;;19.68;67.47;101027.56;4412072;39;97498;-75
2021/08/05 04:30:14;;;;;;;0.10;0.10;;;16.50;82.30;;;19.71;67.01;101024.13;4412546;39;97510;-74
2021/08/05 04:33:20;;;;;;;19.52;1.05;;;16.50;82.20;;;19.72;66.99;101030.34;4406671;39;97956;-74
2021/08/05 04:36:24;;;;;;;1.48;0.93;;;16.50;82.20;;;19.70;67.27;101032.63;4406198;39;97558;-75
2021/08/05 04:39:29;;;;;;;0.65;0.43;;;16.50;82.30;;;19.74;66.95;101036.22;4414016;39;97445;-75
2021/08/05 04:42:33;;;;;;;2.90;0.82;;;16.40;82.20;;;19.71;67.13;101026.03;4406069;39;96949;-75
2021/08/05 04:45:37;;;;;;;0.15;0.15;;;16.50;82.20;;;19.74;67.08;101022.59;4417625;39;97695;-75
2021/08/05 04:48:43;;;;;;;0.10;0.10;;;16.50;82.20;;;19.78;66.99;101026.19;4414426;39;97619;-75
2021/08/05 04:51:47;;;;;;;1.40;0.75;;;16.50;82.20;;;19.84;67.30;101027.50;4412431;39;97598;-75
2021/08/05 04:54:51;;;;;;;0.22;0.22;;;16.60;82.20;;;19.91;67.17;101022.97;4399847;39;97200;-75
2021/08/05 04:57:58;;;;;;;0.38;0.38;;;16.60;82.20;;;19.90;66.43;101023.34;4397279;39;97667;-75
2021/08/05 05:01:05;;;;;;;0.10;0.10;;;16.60;82.10;;;19.94;66.26;101026.94;4406755;39;97154;-75
2021/08/05 05:04:11;;;;;;;0.20;0.20;;;16.60;82.00;;;19.97;66.22;101023.50;4413631;39;97594;-75
2021/08/05 05:07:15;;;;;;;0.10;0.10;;;16.70;82.00;;;19.98;66.39;101016.91;4417292;39;97004;-75
2021/08/05 05:10:25;;;;;;;0.50;0.50;;;16.70;82.00;;;19.96;66.34;101016.50;4398269;39;97467;-74
2021/08/05 05:13:29;;;;;;;1.27;0.70;;;16.70;81.90;;;20.00;66.59;101017.34;4405809;39;96828;-74
2021/08/05 05:16:32;;;;;;;0.70;0.70;;;16.70;82.10;;;20.03;66.26;101009.28;4413634;39;96687;-74
2021/08/05 05:19:38;;;;;;;0.28;0.28;;;16.70;82.00;;;20.01;66.52;101008.06;4414980;39;97762;-75
2021/08/05 05:22:42;;;;;;;0.45;0.45;;;16.70;81.90;;;20.00;66.75;101006.47;4413283;39;97906;-74
2021/08/05 05:25:48;;;;;;;0.40;0.40;;;16.70;81.90;;;20.05;66.58;101012.44;4404176;39;96913;-74
2021/08/05 05:28:52;;;;;;;0.38;0.38;;;16.70;81.90;;;20.09;66.60;101002.41;4404147;39;97869;-75
2021/08/05 05:31:56;;;;;;;0.65;0.65;;;16.70;81.90;;;20.17;66.75;101003.34;4406507;39;97049;-75
2021/08/05 05:35:03;;;;;;;;;;;16.80;82.00;;;20.19;66.19;101001.84;4398647;39;97234;-74
2021/08/05 05:38:09;;;;;;;0.40;0.40;;;16.80;82.00;;;20.24;65.74;101006.97;4415305;39;98611;-75
2021/08/05 05:41:12;;;;;;;3.05;0.85;;;16.90;81.90;;;20.35;65.87;101012.63;4396586;39;98615;-74
2021/08/05 05:44:16;;;;;;;0.32;0.32;;;16.90;81.90;;;20.43;66.29;101014.38;4412871;39;97642;-75
2021/08/05 05:47:20;;;;;;;0.20;0.20;;;17.00;81.80;;;20.51;65.21;100997.00;4405543;39;97837;-74
2021/08/05 05:50:25;;;;;;;1.20;0.63;;;17.10;81.70;;;20.70;65.46;100997.75;4403074;39;98127;-74
2021/08/05 05:53:29;;;;;;;1.88;0.70;;;17.20;82.20;;;20.86;65.45;100993.78;4412133;39;98183;-75
2021/08/05 05:56:33;;;;;;;0.17;0.17;;;17.30;81.40;;;21.04;64.83;100992.16;4412637;39;98254;-75
2021/08/05 05:59:37;;;;;;;0.30;0.30;;;17.40;81.20;;;21.23;64.41;100994.00;4412098;39;97717;-75
2021/08/05 06:02:42;;;;;;;0.25;0.25;;;17.50;80.90;;;21.43;63.86;100992.72;4414215;39;97810;-74
2021/08/05 06:05:48;;;;;;;0.35;0.35;;;17.70;80.70;;;21.69;64.01;100995.47;4413121;39;97046;-75
2021/08/05 06:08:52;;;;;;;0.10;0.10;;;17.80;80.50;;;21.97;63.39;100990.38;4404787;39;97680;-74
2021/08/05 06:11:56;;;;;;;0.47;0.40;;;18.00;80.30;;;22.30;62.12;100989.22;4420362;39;97871;-75
2021/08/05 06:15:00;;;;;;;0.50;0.50;;;18.30;80.00;;;22.68;61.79;100990.81;4414158;39;96678;-75
2021/08/05 06:18:06;;;;;;;3.30;0.80;;;18.60;79.60;;;22.92;61.67;100995.72;4418465;39;98088;-75
2021/08/05 06:21:12;;;;;;;0.77;0.65;;;18.80;79.20;;;23.14;61.06;100997.50;4404333;39;97528;-74
2021/08/05 06:24:15;;;;;;;0.88;0.82;;;19.10;78.90;;;23.29;60.86;100994.50;4414466;39;97603;-75
2021/08/05 06:27:21;;;;;;;;;;;19.20;78.60;;;23.39;60.97;100995.69;4417099;39;96821;-74
2021/08/05 06:30:25;;;;;;;0.28;0.28;;;19.40;78.40;;;23.45;61.30;101000.44;4412228;39;97524;-74
2021/08/05 06:33:29;;;;;;;;;;;19.50;78.30;;;23.56;61.11;101004.00;4415587;39;96921;-74
2021/08/05 06:36:34;;;;;;;0.57;0.45;;;19.60;78.30;;;23.52;61.73;101007.91;4413588;39;97857;-75
2021/08/05 06:39:38;;;;;;;0.75;0.75;;;19.70;78.30;;;23.38;61.83;101007.81;4407712;39;98638;-75
2021/08/05 06:42:42;;;;;;;;;;;19.70;78.40;;;23.33;62.40;101002.69;4415061;39;96652;-74
2021/08/05 06:45:46;;;;;;;0.00;0.00;;;19.70;78.50;;;23.18;62.90;101001.81;4404069;39;97659;-75
2021/08/05 06:48:50;;;;;;;0.32;0.32;;;19.60;78.60;;;23.20;62.67;101012.38;4415692;39;97547;-74
2021/08/05 06:51:55;;;;;;;0.00;0.00;;;19.50;78.80;;;23.17;63.08;101013.13;4398591;39;96693;-75
2021/08/05 06:54:59;;;;;;;0.25;0.25;;;19.50;78.90;;;23.28;62.62;101014.00;4415236;39;97608;-74
2021/08/05 06:58:07;;;;;;;0.40;0.40;;;19.50;79.00;;;23.59;61.67;101005.22;4411869;39;96614;-75
2021/08/05 07:01:11;;;;;;;0.75;0.70;;;19.60;79.00;;;24.02;60.80;101002.34;4412105;39;97128;-74
2021/08/05 07:04:15;;;;;;;0.25;0.25;;;19.80;78.80;;;24.85;59.12;101010.00;4414800;39;97774;-74
2021/08/05 07:07:20;;;;;;;4.32;1.08;;;20.10;78.40;;;25.52;57.43;101004.50;4406379;39;97630;-75
2021/08/05 07:10:25;;;;;;;0.50;0.50;;;20.60;77.70;;;25.79;57.11;101003.66;4417213;39;97224;-75
2021/08/05 07:13:28;;;;;;;1.33;0.88;;;21.00;77.20;;;26.67;56.12;100993.06;4413428;39;98640;-75
2021/08/05 07:16:33;;;;;;;0.90;0.50;;;21.50;76.80;;;27.99;53.62;101000.09;4414192;39;97667;-75
2021/08/05 07:19:40;;;;;;;0.47;0.45;;;22.30;75.70;;;28.04;54.28;101005.13;4398468;39;96836;-75
2021/08/05 07:22:46;;;;;;;0.00;0.00;;;22.70;75.20;;;28.40;54.42;101011.78;4396171;39;96828;-75
2021/08/05 07:25:50;;;;;;;0.10;0.10;;;23.10;75.00;;;28.20;55.28;101007.31;4402467;39;97996;-75
2021/08/05 07:28:54;;;;;;;0.52;0.50;;;23.30;74.90;;;28.90;54.01;101007.13;4400684;39;97488;-72
2021/08/05 07:32:01;;;;;;;;;;;23.60;74.70;;;28.83;55.04;101001.69;4415713;39;96671;-71
2021/08/05 07:35:10;;;;;;;2.53;0.63;;;23.70;74.70;;;28.75;55.77;100997.47;4412019;39;97323;-72
2021/08/05 07:38:15;;;;;;;0.70;0.50;;;23.90;74.80;;;28.97;55.36;100997.91;4412878;39;96792;-72
2021/08/05 07:41:19;;;;;;;1.45;0.38;;;24.10;75.00;;;28.97;55.97;100995.97;4410681;39;96986;-72
2021/08/05 07:44:23;;;;;;;0.32;0.32;;;24.20;74.70;;;28.98;55.85;101003.03;4403967;39;98114;-72
2021/08/05 07:47:28;;;;;;;0.68;0.68;;;24.20;74.70;;;28.76;56.52;100995.50;4411879;39;97057;-73
2021/08/05 07:50:32;;;;;;;0.22;0.22;;;24.20;74.90;;;28.40;57.61;100998.00;4414920;39;96819;-72
2021/08/05 07:53:38;;;;;;;2.15;0.77;;;24.10;75.20;;;28.30;58.02;100996.16;4387579;39;97025;-73
2021/08/05 07:56:44;;;;;;;1.35;1.08;;;24.00;75.50;;;28.12;58.45;100994.81;4411423;39;97745;-73
2021/08/05 07:59:49;;;;;;;0.32;0.32;;;23.90;75.80;;;28.01;58.69;100983.13;4416413;39;99530;-72
2021/08/05 08:02:53;;;;;;;1.98;1.45;;;23.80;76.00;;;27.96;58.94;100980.84;4412159;39;97408;-75
2021/08/05 08:05:58;;;;;;;0.85;0.73;;;23.80;76.20;;;28.26;58.06;100989.91;4388285;39;97591;-74
2021/08/05 08:09:06;;;;;;;0.20;0.20;;;23.80;76.30;;;28.65;57.18;100978.31;4411854;39;97623;-76
2021/08/05 08:12:10;;;;;;;0.60;0.60;;;23.90;76.30;;;29.02;56.57;100975.41;4401727;39;97634;-76
2021/08/05 08:15:16;;;;;;;0.47;0.30;;;24.10;76.00;;;29.59;55.31;100969.22;4414675;39;97659;-79
2021/08/05 08:18:21;;;;;;;0.98;0.30;;;24.30;75.70;;;32.44;48.95;100977.03;4417188;39;96741;-80
2021/08/05 08:21:25;;;;;;;0.20;0.20;;;25.00;74.90;;;35.44;43.20;100964.16;4416544;39;97895;-80
2021/08/05 08:24:30;;;;;;;0.05;0.05;;;26.20;73.90;;;33.54;48.95;100966.59;4415469;39;97581;-80
2021/08/05 08:27:34;;;;;;;1.35;1.05;;;26.90;73.10;;;32.96;51.08;100968.22;4397633;39;99138;-80
2021/08/05 08:30:38;;;;;;;1.38;0.77;;;27.00;73.30;;;32.62;51.96;100965.38;4400724;39;97618;-80
2021/08/05 08:33:42;;;;;;;0.30;0.30;;;27.10;73.40;;;35.35;46.51;100962.16;4400287;39;97863;-80
2021/08/05 08:36:46;;;;;;;0.13;0.13;;;27.50;73.70;;;36.48;45.55;100953.72;4416134;39;98661;-78
2021/08/05 08:39:52;;;;;;;0.32;0.32;;;28.40;73.20;;;35.51;48.44;100953.47;4405084;39;97785;-75
2021/08/05 08:42:56;;;;;;;0.47;0.40;;;28.70;72.90;;;37.01;45.72;100962.28;4415871;39;96871;-78
2021/08/05 08:46:00;;;;;;;0.35;0.28;;;29.10;72.80;;;39.25;41.81;100951.31;4408471;39;97607;-79
2021/08/05 08:49:10;;;;;;;0.22;0.22;;;29.70;73.00;;;41.92;37.83;100953.53;4405257;39;99566;-78
2021/08/05 08:52:14;;;;;;;1.30;1.08;;;30.70;72.70;;;40.95;41.58;100946.38;4418140;39;96788;-79
2021/08/05 08:55:23;;;;;;;0.55;0.55;;;31.60;72.20;;;39.80;44.98;100938.66;4403665;39;98760;-79
2021/08/05 08:58:29;;;;;;;0.55;0.50;;;32.00;71.90;;;39.08;46.90;100943.94;4416967;39;96746;-76
2021/08/05 09:01:39;;;;;;;0.50;0.50;;;32.10;72.30;;;37.42;51.34;100938.97;4415439;39;97586;-73
2021/08/05 09:04:46;;;;;;;0.70;0.32;;;32.00;72.90;;;36.44;53.42;100932.78;4414988;39;97349;-74
2021/08/05 09:07:50;;;;;;;0.13;0.13;;;31.60;73.10;;;35.77;55.13;100942.75;4413682;39;99488;-72
2021/08/05 09:10:57;;;;;;;0.32;0.32;;;31.30;73.70;;;35.52;55.16;100929.16;4411186;39;97555;-72
2021/08/05 09:14:01;;;;;;;0.47;0.30;;;30.90;73.80;;;35.12;55.57;100923.72;4414043;39;97695;-72
2021/08/05 09:17:23;;;;;;;0.85;0.60;;;30.60;74.30;;;34.89;56.04;100932.69;4413455;39;97873;-72
2021/08/05 09:20:27;;;;;;;0.20;0.20;;;30.40;74.30;;;34.34;57.25;100927.41;4411719;39;98566;-73
2021/08/05 09:23:55;;;;;;;0.68;0.68;;;30.10;74.60;;;34.05;57.66;100924.16;4414147;39;97711;-71
2021/08/05 09:27:02;;;;;;;1.23;0.57;;;29.80;74.70;;;34.28;56.23;100923.69;4415350;39;96725;-71
2021/08/05 09:30:10;;;;;;;0.10;0.10;;;29.60;75.20;;;34.10;56.88;100920.81;4411339;39;97520;-72
2021/08/05 09:33:17;;;;;;;0.25;0.25;;;29.50;75.40;;;33.78;56.64;100914.91;4411026;39;97587;-73
2021/08/05 09:36:28;;;;;;;0.50;0.50;;;29.30;75.00;;;33.24;58.08;100920.84;4412707;39;97660;-74
2021/08/05 09:39:36;;;;;;;0.80;0.60;;;29.10;75.00;;;32.50;59.08;100919.00;4410710;39;96822;-73
2021/08/05 09:42:43;;;;;;;0.60;0.50;;;28.80;75.10;;;32.36;59.64;100916.66;4412221;39;97706;-73
2021/08/05 09:45:49;;;;;;;0.00;0.00;;;28.40;75.80;;;32.13;59.97;100930.84;4414366;39;97982;-74
2021/08/05 09:48:53;;;;;;;1.45;1.10;;;28.20;76.30;;;31.84;60.36;100924.59;4403210;39;98032;-73
2021/08/05 09:51:59;;;;;;;0.25;0.25;;;28.00;76.50;;;31.52;60.77;100918.38;4411238;39;97697;-73
2021/08/05 09:55:09;;;;;;;0.43;0.43;;;27.80;76.30;;;31.06;61.16;100921.59;4412087;39;97405;-73
2021/08/05 09:58:26;;;;;;;0.75;0.75;;;27.50;76.50;;;30.89;61.36;100915.31;4415222;39;96750;-73
2021/08/05 10:02:05;;;;;;;18.63;1.33;;;27.30;76.80;;;30.83;61.47;100908.75;4412645;39;97618;-73
2021/08/05 10:05:14;;;;;;;0.73;0.73;;;27.10;76.90;;;31.02;60.50;100909.84;4413516;39;97643;-74
2021/08/05 10:08:35;;;;;;;0.65;0.52;;;27.00;77.00;;;31.07;60.31;100903.78;4411657;39;96838;-73
2021/08/05 10:11:43;;;;;;;4.82;0.60;;;27.00;76.60;;;31.12;60.04;100901.28;4402753;39;97108;-73
2021/08/05 10:14:52;;;;;;;0.38;0.38;;;27.10;76.90;;;31.35;59.54;100898.28;4404651;39;97453;-74
2021/08/05 10:18:00;;;;;;;0.63;0.43;;;27.10;76.60;;;31.57;58.92;100890.94;4411455;39;97622;-73
2021/08/05 10:21:12;;;;;;;0.75;0.20;;;27.20;76.40;;;31.95;57.73;100894.56;4413699;39;96797;-74
2021/08/05 10:24:18;;;;;;;0.25;0.25;;;27.30;75.90;;;32.76;56.10;100884.44;4422007;39;97886;-74
2021/08/05 10:27:22;;;;;;;1.95;0.57;;;27.60;75.80;;;33.56;54.37;100878.78;4415068;39;97565;-74
2021/08/05 10:30:28;;;;;;;0.13;0.10;;;28.10;75.60;;;34.43;53.33;100877.34;4414786;39;97744;-73
2021/08/05 10:33:33;;;;;;;0.20;0.20;;;28.70;75.00;;;34.61;53.07;100880.16;4412565;39;97330;-74
2021/08/05 10:36:38;;;;;;;0.38;0.25;;;29.10;74.10;;;34.71;53.38;100876.97;4404349;39;97920;-74
2021/08/05 10:39:45;;;;;;;0.32;0.32;;;29.40;73.90;;;34.47;54.19;100873.16;4412154;39;97471;-74
2021/08/05 10:42:52;;;;;;;0.40;0.30;;;29.50;73.40;;;34.47;54.36;100875.94;4410302;39;98582;-74
2021/08/05 10:45:58;;;;;;;0.47;0.47;;;29.60;73.70;;;34.63;54.10;100861.75;4413710;39;98564;-74
2021/08/05 10:49:08;;;;;;;0.22;0.22;;;29.70;73.70;;;34.99;54.01;100864.59;4413461;39;97656;-70
2021/08/05 10:52:40;;;;;;;0.45;0.45;;;29.90;73.90;;;35.43;53.16;100854.69;4414468;39;98707;-72
2021/08/05 10:55:44;;;;;;;0.70;0.70;;;30.20;73.50;;;35.22;54.42;100858.44;4413004;39;96829;-75
2021/08/05 10:59:10;;;;;;;1.48;0.60;;;30.30;74.20;;;35.11;54.89;100855.28;4413945;39;97598;-77
2021/08/05 11:02:15;;;;;;;0.30;0.30;;;30.30;73.60;;;35.92;53.29;100852.38;4412010;39;97519;-77
2021/08/05 11:05:45;;;;;;;0.25;0.25;;;30.60;73.70;;;35.71;53.99;100850.56;4411780;39;99255;-75
2021/08/05 11:08:50;;;;;;;0.30;0.30;;;30.80;73.00;;;35.30;55.15;100847.75;4411307;39;97646;-78
2021/08/05 11:11:54;;;;;;;0.28;0.28;;;30.70;73.40;;;34.89;55.90;100842.78;4403550;39;97673;-74
2021/08/05 11:14:58;;;;;;;0.93;0.82;;;30.50;73.80;;;34.47;56.63;100836.97;4411722;39;98409;-74
2021/08/05 11:18:27;;;;;;;0.00;0.00;;;30.20;74.10;;;34.00;57.34;100838.53;4389153;39;97795;-73
2021/08/05 11:21:31;;;;;;;0.08;0.08;;;29.90;74.20;;;34.08;57.52;100836.25;4411417;39;98498;-74
2021/08/05 11:24:54;;;;;;;0.00;0.00;;;29.70;75.30;;;34.50;56.97;100827.72;4403079;39;97514;-75
2021/08/05 11:28:24;;;;;;;0.27;0.27;;;29.80;75.10;;;34.50;56.77;100818.59;4411244;39;97061;-76
2021/08/05 11:31:45;;;;;;;4.50;1.23;;;29.80;74.70;;;34.59;56.61;100816.59;4410570;39;98608;-76
2021/08/05 11:35:00;;;;;;;0.60;0.47;;;29.90;75.00;;;34.85;55.67;100820.66;4410993;39;97208;-77
2021/08/05 11:38:11;;;;;;;0.10;0.10;;;30.00;74.70;;;35.06;55.59;100807.78;4401224;39;97724;-76
2021/08/05 11:41:52;;;;;;;0.20;0.20;;;30.10;74.80;;;34.94;56.22;100798.38;4389476;39;96795;-78
2021/08/05 11:45:11;;;;;;;0.05;0.05;;;30.30;74.90;;;34.97;56.15;100799.44;4384834;39;100085;-80
2021/08/05 11:48:36;;;;;;;0.20;0.20;;;30.30;74.50;;;35.13;56.19;100797.16;4407566;39;98084;-80
2021/08/05 11:51:42;;;;;;;0.40;0.40;;;30.40;74.70;;;35.40;55.68;100790.72;4413198;39;96909;-78
2021/08/05 11:54:49;;;;;;;0.00;0.00;;;30.50;74.90;;;35.53;55.40;100792.06;4410935;39;98437;-77
2021/08/05 11:57:58;;;;;;;1.75;1.15;;;30.70;74.70;;;35.40;56.11;100785.13;4403020;39;97253;-76
2021/08/05 12:01:13;;;;;;;0.75;0.70;;;30.70;74.30;;;35.14;56.74;100770.81;4412363;39;97072;-75
2021/08/05 12:04:20;;;;;;;2.35;0.70;;;30.60;74.30;;;35.15;56.80;100761.22;4402166;39;97634;-74
2021/08/05 12:07:30;;;;;;;0.08;0.08;;;30.70;74.70;;;34.60;57.58;100765.25;4408284;39;97061;-74
2021/08/05 12:10:36;;;;;;;0.47;0.28;;;30.60;74.30;;;33.95;58.76;100758.47;4413599;39;97654;-75
2021/08/05 12:13:42;;;;;;;0.20;0.20;;;30.30;74.20;;;33.10;60.47;100759.44;4398297;39;97322;-75
2021/08/05 12:16:46;;;;;;;0.45;0.25;;;29.80;74.70;;;32.53;61.16;100757.16;4412821;39;97923;-75
2021/08/05 12:19:51;;;;;;;0.00;0.00;;;29.40;74.80;;;32.49;61.06;100750.94;4405638;39;99551;-74
2021/08/05 12:23:06;;;;;;;0.90;0.57;;;29.00;75.40;;;33.05;60.05;100752.47;4414871;39;97691;-72
2021/08/05 12:26:15;;;;;;;0.00;0.00;;;29.00;75.60;;;33.48;58.51;100746.88;4410846;39;97512;-73
2021/08/05 12:29:18;;;;;;;0.10;0.10;;;29.10;75.70;;;33.86;57.81;100741.00;4409739;39;97602;-73
2021/08/05 12:32:22;;;;;;;0.20;0.20;;;29.40;75.40;;;33.97;57.60;100733.75;4411584;39;97892;-73
2021/08/05 12:35:26;;;;;;;0.20;0.13;;;29.50;75.00;;;34.08;57.75;100722.97;4409541;39;97138;-72
2021/08/05 12:38:32;;;;;;;0.00;0.00;;;29.70;74.90;;;34.00;57.60;100720.97;4411552;39;96847;-72
2021/08/05 12:41:41;;;;;;;0.10;0.10;;;29.80;74.70;;;33.95;58.10;100725.09;4410593;39;97797;-73
2021/08/05 12:44:46;;;;;;;0.28;0.28;;;29.80;74.40;;;34.08;57.82;100717.41;4410817;39;98019;-72
2021/08/05 12:47:50;;;;;;;0.15;0.08;;;29.90;74.60;;;34.15;57.75;100711.56;4413772;39;97705;-73
2021/08/05 12:50:54;;;;;;;0.20;0.20;;;30.00;74.70;;;34.34;57.32;100702.00;4412614;39;96814;-72
2021/08/05 12:54:13;;;;;;;0.00;0.00;;;30.10;74.60;;;34.40;57.36;100700.91;4410604;39;97125;-73
2021/08/05 12:57:18;;;;;;;0.10;0.10;;;30.30;73.80;;;34.25;57.65;100702.00;4411894;39;97904;-72
2021/08/05 13:00:30;;;;;;;1.08;0.32;;;30.30;73.90;;;34.02;57.73;100701.78;4420101;39;97675;-74
2021/08/05 13:03:42;;;;;;;0.17;0.17;;;30.20;73.70;;;33.60;58.44;100692.38;4412337;39;97590;-74